Time;durP1;ratioP1;P1;durP2;ratioP2;P2;SDS_P1;SDS_P2;PMS_P1;PMS_P2;Temp;Humidity;BMP_temperature;BMP_pressure;BME280_temperature;BME280_humidity;BME280_pressure;Samples;Min_cycle;Max_cycle;Signal;HPM_P1;HPM_P2
2022/04/22 04:48:18;;;;;;;31.80;24.25;;;;;;;5.82;100.00;100163.27;1776858;80;21050;-36
2022/04/22 04:50:47;;;;;;;31.33;24.43;;;;;;;5.88;100.00;100178.95;1721787;83;21179;-36
2022/04/22 04:53:15;;;;;;;31.50;24.87;;;;;;;5.94;100.00;100173.02;1715873;82;21027;-44
2022/04/22 04:55:43;;;;;;;31.55;24.87;;;;;;;5.98;100.00;100180.02;1757862;80;21017;-44
2022/04/22 04:58:11;;;;;;;30.55;24.72;;;;;;;6.01;100.00;100184.38;1752325;80;20986;-44
2022/04/22 05:00:38;;;;;;;31.37;23.70;;;;;;;6.04;100.00;100190.52;1701113;83;21123;-44
2022/04/22 05:03:05;;;;;;;32.17;24.65;;;;;;;6.06;100.00;100196.59;1717473;83;21033;-44
2022/04/22 05:05:32;;;;;;;30.20;23.50;;;;;;;6.11;100.00;100191.05;1712735;82;21082;-43
2022/04/22 05:08:00;;;;;;;29.87;22.67;;;;;;;6.14;100.00;100187.62;1708845;82;21026;-43
2022/04/22 05:10:29;;;;;;;29.05;22.50;;;;;;;6.18;100.00;100188.55;1714292;83;21098;-43
2022/04/22 05:12:57;;;;;;;32.48;23.52;;;;;;;6.24;100.00;100198.61;1747043;81;20986;-43
2022/04/22 05:15:25;;;;;;;27.42;22.58;;;;;;;6.25;100.00;100198.19;1747933;81;21066;-43
2022/04/22 05:17:54;;;;;;;26.68;22.17;;;;;;;6.27;100.00;100198.68;1750279;80;21480;-43
2022/04/22 05:20:25;;;;;;;27.80;22.48;;;;;;;6.31;100.00;100190.06;1748040;81;21670;-44
2022/04/22 05:22:53;;;;;;;29.67;23.12;;;;;;;6.37;100.00;100180.19;1711814;82;21014;-43
2022/04/22 05:25:19;;;;;;;27.02;22.17;;;;;;;6.45;100.00;100184.22;1713700;83;21019;-43
2022/04/22 05:27:48;;;;;;;25.90;21.30;;;;;;;6.55;100.00;100181.78;1708150;82;21694;-43
2022/04/22 05:33:03;;;;;;;24.75;19.95;;;;;;;6.76;100.00;100182.48;1734986;81;21607;-43
2022/04/22 05:35:31;;;;;;;28.65;19.67;;;;;;;6.91;100.00;100181.84;1743988;81;21046;-43
2022/04/22 05:38:04;;;;;;;29.20;20.70;;;;;;;7.00;100.00;100183.23;1748670;81;20976;-43
2022/04/22 05:40:34;;;;;;;41.15;22.48;;;;;;;7.09;100.00;100170.78;1749635;80;21614;-43
2022/04/22 05:43:01;;;;;;;36.48;23.02;;;;;;;7.18;100.00;100173.47;1711001;83;20962;-43
2022/04/22 05:45:28;;;;;;;24.40;19.95;;;;;;;7.27;100.00;100181.41;1710590;83;21571;-44
2022/04/22 05:47:58;;;;;;;37.73;21.50;;;;;;;7.37;100.00;100175.88;1716743;82;20998;-43
2022/04/22 05:50:27;;;;;;;28.02;18.67;;;;;;;7.44;100.00;100168.58;1716607;82;21103;-43
2022/04/22 05:52:55;;;;;;;22.95;18.45;;;;;;;7.50;100.00;100165.17;1720283;82;21515;-44
2022/04/22 05:55:25;;;;;;;23.57;18.12;;;;;;;7.47;100.00;100173.80;1718045;82;21305;-44
2022/04/22 05:57:53;;;;;;;23.38;18.20;;;;;;;7.44;100.00;100166.84;1720177;82;21050;-44
2022/04/22 06:00:24;;;;;;;21.68;17.70;;;;;;;7.41;100.00;100164.19;1714251;82;20995;-44
2022/04/22 06:02:52;;;;;;;18.82;15.03;;;;;;;7.39;100.00;100165.92;1717333;82;21494;-44
2022/04/22 06:05:23;;;;;;;22.17;16.45;;;;;;;7.40;100.00;100168.96;1718750;82;21061;-36
2022/04/22 06:10:35;;;;;;;20.80;16.65;;;;;;;7.45;100.00;100161.20;1714167;82;20992;-36
2022/04/22 06:13:04;;;;;;;21.93;16.15;;;;;;;7.53;100.00;100152.16;1716641;82;21007;-35
2022/04/22 06:15:32;;;;;;;19.80;15.88;;;;;;;7.60;100.00;100155.30;1720581;82;21125;-36
2022/04/22 06:18:01;;;;;;;22.77;16.67;;;;;;;7.63;100.00;100158.78;1711942;82;21042;-36
2022/04/22 06:20:30;;;;;;;18.82;14.75;;;;;;;7.67;100.00;100170.98;1721794;81;21061;-35
2022/04/22 06:22:57;;;;;;;17.50;13.93;;;;;;;7.73;100.00;100167.14;1716804;82;21041;-35
2022/04/22 06:25:25;;;;;;;20.32;15.25;;;;;;;7.80;100.00;100171.09;1722453;82;21105;-35
2022/04/22 06:28:02;;;;;;;19.30;14.90;;;;;;;7.87;100.00;100168.55;1717956;82;21065;-35
2022/04/22 06:30:30;;;;;;;23.70;14.63;;;;;;;7.95;100.00;100168.64;1718243;82;21572;-43
2022/04/22 06:33:00;;;;;;;19.55;13.98;;;;;;;7.99;100.00;100175.60;1718185;82;21022;-43
2022/04/22 06:35:29;;;;;;;19.77;15.10;;;;;;;8.02;100.00;100170.43;1722564;82;21098;-43
2022/04/22 06:37:56;;;;;;;17.02;14.03;;;;;;;8.05;100.00;100180.86;1721036;82;21429;-43
2022/04/22 06:45:59;;;;;;;17.00;13.62;;;;;;;8.21;100.00;100184.04;1713340;82;21038;-43
2022/04/22 06:48:33;;;;;;;18.23;13.40;;;;;;;8.28;100.00;100182.34;1716366;82;21010;-44
2022/04/22 06:50:58;;;;;;;17.80;13.10;;;;;;;8.27;98.79;100180.17;1714288;82;21638;-43
2022/04/22 06:53:25;;;;;;;15.28;12.85;;;;;;;8.23;98.35;100189.26;1711007;83;21556;-43
2022/04/22 06:55:53;;;;;;;20.10;13.90;;;;;;;8.22;99.06;100188.81;1709247;83;21041;-43
2022/04/22 06:58:20;;;;;;;21.95;14.78;;;;;;;8.27;99.16;100178.00;1719813;82;20943;-43
2022/04/22 07:00:49;;;;;;;16.95;12.95;;;;;;;8.32;100.00;100195.86;1713805;82;21037;-44
2022/04/22 07:03:17;;;;;;;14.78;11.85;;;;;;;8.35;99.22;100196.30;1709794;83;21001;-43
2022/04/22 07:05:47;;;;;;;16.05;12.50;;;;;;;8.37;98.81;100197.23;1713775;82;21080;-43
2022/04/22 07:08:14;;;;;;;17.95;11.95;;;;;;;8.37;98.16;100199.41;1711433;83;20977;-43
2022/04/22 07:10:44;;;;;;;15.55;12.15;;;;;;;8.38;97.97;100209.41;1712307;82;21101;-44
2022/04/22 07:13:12;;;;;;;14.80;11.73;;;;;;;8.36;96.90;100201.58;1713291;83;20989;-43
2022/04/22 07:15:41;;;;;;;15.23;10.90;;;;;;;8.35;96.38;100205.42;1717007;83;21042;-43
2022/04/22 07:18:09;;;;;;;14.90;11.88;;;;;;;8.33;96.64;100214.54;1710377;83;21024;-44
2022/04/22 07:20:38;;;;;;;14.13;11.60;;;;;;;8.30;96.96;100220.18;1710894;83;21867;-43
2022/04/22 07:23:05;;;;;;;16.45;11.73;;;;;;;8.28;97.42;100222.31;1707460;83;20961;-43
2022/04/22 07:25:32;;;;;;;20.27;12.60;;;;;;;8.27;97.04;100227.09;1706839;83;21925;-43
2022/04/22 07:28:01;;;;;;;19.52;11.88;;;;;;;8.26;97.13;100218.84;1714040;82;20957;-44
2022/04/22 07:30:29;;;;;;;15.48;11.60;;;;;;;8.27;97.64;100222.31;1710841;83;21533;-43
2022/04/22 07:32:57;;;;;;;14.98;11.70;;;;;;;8.27;96.57;100221.01;1710929;83;21069;-43
2022/04/22 07:35:25;;;;;;;15.35;11.97;;;;;;;8.29;96.07;100212.77;1709694;83;21066;-43
2022/04/22 07:37:53;;;;;;;14.70;11.25;;;;;;;8.31;95.83;100217.58;1710620;83;21013;-43
2022/04/22 07:40:22;;;;;;;17.37;11.30;;;;;;;8.32;95.35;100225.84;1708369;83;21068;-44
2022/04/22 07:48:27;;;;;;;13.58;11.20;;;;;;;8.37;95.18;100225.91;1702786;83;21514;-44
2022/04/22 07:50:54;;;;;;;18.15;11.00;;;;;;;8.43;95.40;100228.56;1698304;83;21116;-44
2022/04/22 07:53:22;;;;;;;12.28;10.88;;;;;;;8.51;95.59;100226.87;1696515;83;20985;-45
2022/04/22 07:55:49;;;;;;;17.65;10.93;;;;;;;8.60;95.36;100225.64;1692042;83;21613;-44
2022/04/22 07:58:17;;;;;;;15.75;11.03;;;;;;;8.73;95.29;100223.55;1699264;83;20971;-45
2022/04/22 08:07:38;;;;;;;13.08;9.63;;;;;;;9.25;91.72;100212.08;1806388;78;22956;-43
2022/04/22 08:10:07;;;;;;;17.80;10.60;;;;;;;9.33;90.02;100215.61;1775766;79;21025;-43
2022/04/22 08:12:34;;;;;;;15.00;11.00;;;;;;;9.40;89.39;100216.50;1791499;79;21569;-43
2022/04/22 08:15:03;;;;;;;12.25;10.08;;;;;;;9.49;89.88;100206.50;1787526;79;21485;-43
2022/04/22 08:17:38;;;;;;;13.35;10.32;;;;;;;9.59;90.13;100215.68;1745130;82;21602;-44
2022/04/22 08:20:07;;;;;;;14.40;10.55;;;;;;;9.69;89.23;100223.12;1720017;83;21054;-45
2022/04/22 08:22:34;;;;;;;13.03;11.43;;;;;;;9.79;89.03;100213.53;1720928;83;21027;-44
2022/04/22 08:25:01;;;;;;;14.83;10.70;;;;;;;9.89;88.58;100219.66;1729993;81;21033;-44
2022/04/22 08:27:30;;;;;;;13.90;10.55;;;;;;;9.97;88.19;100216.20;1738393;81;21074;-44
2022/04/22 08:29:59;;;;;;;12.35;9.85;;;;;;;10.03;86.80;100223.15;1741087;81;21025;-44
2022/04/22 08:32:27;;;;;;;10.65;9.60;;;;;;;10.06;87.01;100216.20;1734172;82;21458;-44
2022/04/22 08:34:53;;;;;;;11.50;9.80;;;;;;;10.10;86.85;100219.25;1724988;83;21540;-44
2022/04/22 08:37:20;;;;;;;14.78;10.20;;;;;;;10.10;85.46;100229.71;1735130;81;21088;-44
2022/04/22 08:39:47;;;;;;;14.03;10.68;;;;;;;10.01;85.23;100223.59;1733459;81;21029;-44
2022/04/22 08:42:14;;;;;;;15.98;10.63;;;;;;;9.91;85.50;100226.62;1742689;82;21013;-44
2022/04/22 08:44:42;;;;;;;16.17;11.08;;;;;;;9.83;86.63;100220.52;1739472;82;21037;-44
2022/04/22 08:50:09;;;;;;;12.07;10.28;;;;;;;9.64;88.10;100227.45;1737549;81;21081;-44
2022/04/22 08:52:35;;;;;;;16.20;11.70;;;;;;;9.59;89.13;100228.73;1741361;81;21525;-44
2022/04/22 08:55:06;;;;;;;16.55;11.57;;;;;;;9.61;89.81;100218.29;1732713;81;21356;-44
2022/04/22 08:57:32;;;;;;;13.98;11.08;;;;;;;9.64;89.91;100222.23;1723120;83;21364;-44
2022/04/22 09:00:07;;;;;;;13.78;10.98;;;;;;;9.66;90.18;100220.48;1719579;83;21573;-45
2022/04/22 09:02:34;;;;;;;18.10;11.75;;;;;;;9.71;91.18;100206.13;1729356;81;21089;-44
2022/04/22 09:05:00;;;;;;;14.70;11.40;;;;;;;9.75;90.98;100212.67;1731514;81;21052;-44
2022/04/22 09:07:29;;;;;;;14.68;11.63;;;;;;;9.82;91.28;100206.59;1722177;83;21525;-44
2022/04/22 09:09:56;;;;;;;16.65;13.13;;;;;;;9.93;91.93;100217.06;1723958;83;21540;-44
2022/04/22 09:12:25;;;;;;;14.33;12.82;;;;;;;10.06;92.32;100207.05;1754071;82;21033;-44
2022/04/22 09:14:57;;;;;;;13.65;12.15;;;;;;;10.17;90.90;100215.34;1748155;81;21053;-36
2022/04/22 09:17:34;;;;;;;17.80;11.78;;;;;;;10.27;90.38;100212.77;1756209;81;21662;-37
2022/04/22 09:20:04;;;;;;;13.62;12.15;;;;;;;10.32;89.06;100211.42;1715376;82;21505;-44
2022/04/22 09:22:35;;;;;;;19.30;11.78;;;;;;;10.33;89.47;100216.69;1729042;82;21028;-36
2022/04/22 09:25:05;;;;;;;13.95;11.83;;;;;;;10.35;89.34;100223.21;1721250;82;21121;-36
2022/04/22 09:27:38;;;;;;;13.68;10.98;;;;;;;10.34;89.16;100218.86;1733758;82;21041;-38
2022/04/22 09:30:08;;;;;;;13.03;11.68;;;;;;;10.33;89.16;100231.06;1736887;82;20981;-44
2022/04/22 09:32:38;;;;;;;13.53;11.93;;;;;;;10.35;88.81;100233.67;1733368;82;21045;-37
2022/04/22 09:35:16;;;;;;;12.75;11.45;;;;;;;10.36;89.65;100228.43;1734293;82;21409;-44
2022/04/22 09:43:39;;;;;;;15.55;12.20;;;;;;;10.50;88.51;100224.52;1721028;82;20998;-36
2022/04/22 09:46:06;;;;;;;21.05;11.57;;;;;;;10.52;88.46;100221.45;1753860;82;21048;-44
2022/04/22 09:48:44;;;;;;;15.58;10.72;;;;;;;10.53;89.17;100222.33;1724607;82;21007;-37
2022/04/22 09:51:27;;;;;;;12.45;10.65;;;;;;;10.56;87.93;100202.28;1724044;83;21562;-45
2022/04/22 09:54:14;;;;;;;12.07;10.88;;;;;;;10.58;87.10;100221.89;1716950;82;20992;-44
2022/04/22 09:56:58;;;;;;;13.83;11.40;;;;;;;10.61;87.26;100225.79;1729744;82;21602;-45
2022/04/22 09:59:29;;;;;;;12.23;10.28;;;;;;;10.65;86.80;100220.56;1736100;82;21011;-45
2022/04/22 10:01:57;;;;;;;16.85;10.48;;;;;;;10.75;87.33;100211.40;1727223;82;21098;-37
2022/04/22 10:04:24;;;;;;;15.45;10.30;;;;;;;10.84;85.92;100200.89;1752604;82;21438;-37
2022/04/22 10:06:50;;;;;;;23.70;11.85;;;;;;;10.91;85.33;100215.29;1752962;82;21042;-44
2022/04/22 10:09:18;;;;;;;11.70;10.50;;;;;;;10.96;84.50;100189.52;1742140;82;20942;-44
2022/04/22 10:11:52;;;;;;;11.35;10.03;;;;;;;10.99;84.95;100212.64;1719617;82;21025;-37
2022/04/22 10:14:20;;;;;;;11.88;10.08;;;;;;;11.07;84.23;100214.78;1717544;83;21057;-44
2022/04/22 10:16:48;;;;;;;14.63;9.23;;;;;;;11.12;83.05;100209.09;1719325;83;21057;-37
2022/04/22 10:19:16;;;;;;;12.05;9.78;;;;;;;11.19;83.46;100214.77;1717599;83;21444;-37
2022/04/22 10:21:44;;;;;;;13.93;9.95;;;;;;;11.27;82.91;100220.41;1718529;83;21057;-37
2022/04/22 10:24:12;;;;;;;13.98;9.60;;;;;;;11.31;81.54;100215.16;1700256;84;20958;-37
2022/04/22 10:26:40;;;;;;;11.85;10.30;;;;;;;11.32;81.49;100227.37;1706226;83;21113;-45
2022/04/22 10:29:09;;;;;;;17.25;9.48;;;;;;;11.33;81.86;100213.83;1699806;83;21059;-37
2022/04/22 10:31:38;;;;;;;12.10;8.73;;;;;;;11.34;80.86;100220.80;1709271;83;21111;-37
2022/04/22 10:34:06;;;;;;;13.43;9.60;;;;;;;11.34;79.82;100237.39;1659892;83;21530;-37
2022/04/22 10:36:35;;;;;;;12.07;8.73;;;;;;;11.42;81.16;100227.77;1717916;83;21066;-38
2022/04/22 10:39:01;;;;;;;13.83;8.53;;;;;;;11.60;79.80;100233.36;1722615;83;20987;-44
2022/04/22 10:41:28;;;;;;;9.73;8.08;;;;;;;11.75;77.93;100217.97;1713681;83;21610;-45
2022/04/22 10:49:39;;;;;;;11.50;7.87;;;;;;;12.12;77.03;100230.89;1719475;83;21037;-37
2022/04/22 10:52:13;;;;;;;10.58;7.78;;;;;;;12.22;77.45;100231.22;1716913;83;21074;-44
2022/04/22 10:54:59;;;;;;;9.00;7.45;;;;;;;12.34;77.66;100225.88;1720914;83;21153;-37
2022/04/22 10:57:31;;;;;;;10.10;7.15;;;;;;;12.43;76.30;100240.69;1720996;82;21067;-45
2022/04/22 11:00:14;;;;;;;9.30;7.55;;;;;;;12.51;76.34;100220.48;1724200;83;21589;-38
2022/04/22 11:02:43;;;;;;;8.58;7.47;;;;;;;12.58;74.46;100230.48;1722179;81;21601;-45
2022/04/22 11:05:25;;;;;;;8.83;7.35;;;;;;;12.58;73.34;100237.94;1708000;83;21500;-44
2022/04/22 11:07:58;;;;;;;9.78;6.80;;;;;;;12.59;73.81;100240.12;1695529;84;21095;-36
2022/04/22 11:10:48;;;;;;;13.25;7.87;;;;;;;12.60;74.37;100242.72;1703921;84;21091;-43
2022/04/22 11:13:39;;;;;;;8.95;7.03;;;;;;;12.57;73.41;100240.11;1686631;83;21039;-37
2022/04/22 11:16:30;;;;;;;10.95;7.97;;;;;;;12.55;73.09;100243.64;1684931;84;21609;-44
2022/04/22 11:19:22;;;;;;;10.80;7.45;;;;;;;12.56;73.28;100233.13;1740392;80;21049;-37
2022/04/22 11:21:53;;;;;;;;;;;;;;;12.66;74.49;100233.48;1730759;81;21064;-45
2022/04/22 11:24:21;;;;;;;12.73;7.83;;;;;;;12.75;73.85;100228.56;1746343;81;20508;-44
2022/04/22 11:26:49;;;;;;;8.88;6.70;;;;;;;12.77;73.12;100235.56;1757019;81;21036;-37
2022/04/22 11:29:16;;;;;;;8.23;6.72;;;;;;;12.72;71.55;100222.91;1757361;81;20990;-36
2022/04/22 11:31:59;;;;;;;8.33;6.60;;;;;;;12.62;72.33;100219.95;1756679;81;21040;-36
2022/04/22 11:35:11;;;;;;;8.68;7.08;;;;;;;12.53;71.97;100216.11;1757730;81;21033;-37
2022/04/22 11:37:39;;;;;;;8.80;7.55;;;;;;;12.48;71.20;100225.78;1757863;81;21020;-43
2022/04/22 11:40:08;;;;;;;11.35;7.75;;;;;;;12.42;71.24;100234.57;1757875;81;21627;-36
2022/04/22 11:42:45;;;;;;;9.83;7.45;;;;;;;12.39;71.31;100233.72;1757337;81;21073;-44
2022/04/22 11:45:15;;;;;;;12.47;9.15;;;;;;;12.43;71.69;100221.01;1756637;81;21128;-43
2022/04/22 11:47:43;;;;;;;9.63;7.17;;;;;;;12.52;71.86;100210.41;1757419;81;21030;-44
2022/04/22 11:50:19;;;;;;;10.00;6.95;;;;;;;12.61;71.25;100210.34;1757633;81;21564;-44
2022/04/22 11:52:52;;;;;;;11.25;7.05;;;;;;;12.66;70.40;100220.35;1729179;81;21028;-44
2022/04/22 11:55:20;;;;;;;17.52;7.62;;;;;;;12.69;70.14;100190.56;1757567;81;21071;-37
2022/04/22 11:57:46;;;;;;;8.98;7.08;;;;;;;12.75;70.24;100198.38;1726075;81;21591;-36
2022/04/22 12:05:48;;;;;;;11.15;7.53;;;;;;;12.91;70.44;100208.28;1739081;82;21074;-37
